sensor_id;sensor_type;location;lat;lon;timestamp;P1;durP1;ratioP1;P2;durP2;ratioP2
68803;SDS011;55787;52.678;13.314;2023-11-18T00:01:36;12.70;;;3.80;;
68803;SDS011;55787;52.678;13.314;2023-11-18T00:04:03;13.23;;;3.55;;
68803;SDS011;55787;52.678;13.314;2023-11-18T00:06:30;10.27;;;3.10;;
68803;SDS011;55787;52.678;13.314;2023-11-18T00:08:57;11.57;;;3.38;;
68803;SDS011;55787;52.678;13.314;2023-11-18T00:11:23;10.90;;;3.67;;
68803;SDS011;55787;52.678;13.314;2023-11-18T00:13:50;10.95;;;3.25;;
68803;SDS011;55787;52.678;13.314;2023-11-18T00:16:17;11.00;;;3.17;;
68803;SDS011;55787;52.678;13.314;2023-11-18T00:18:43;12.17;;;3.03;;
68803;SDS011;55787;52.678;13.314;2023-11-18T00:21:10;11.15;;;3.25;;
68803;SDS011;55787;52.678;13.314;2023-11-18T00:23:37;11.93;;;3.30;;
68803;SDS011;55787;52.678;13.314;2023-11-18T00:26:05;11.10;;;3.47;;
68803;SDS011;55787;52.678;13.314;2023-11-18T00:28:33;10.50;;;3.30;;
68803;SDS011;55787;52.678;13.314;2023-11-18T00:31:00;9.80;;;2.97;;
68803;SDS011;55787;52.678;13.314;2023-11-18T00:33:27;12.05;;;3.15;;
68803;SDS011;55787;52.678;13.314;2023-11-18T00:35:54;10.57;;;3.17;;
68803;SDS011;55787;52.678;13.314;2023-11-18T00:38:20;10.82;;;3.47;;
68803;SDS011;55787;52.678;13.314;2023-11-18T00:40:47;10.70;;;3.20;;
68803;SDS011;55787;52.678;13.314;2023-11-18T00:43:13;10.87;;;3.30;;
68803;SDS011;55787;52.678;13.314;2023-11-18T00:45:40;10.98;;;3.05;;
68803;SDS011;55787;52.678;13.314;2023-11-18T00:48:09;10.65;;;3.53;;
68803;SDS011;55787;52.678;13.314;2023-11-18T00:50:36;10.55;;;3.10;;
68803;SDS011;55787;52.678;13.314;2023-11-18T00:53:02;10.60;;;3.13;;
68803;SDS011;55787;52.678;13.314;2023-11-18T00:55:29;13.70;;;3.40;;
68803;SDS011;55787;52.678;13.314;2023-11-18T00:57:56;9.98;;;2.83;;
68803;SDS011;55787;52.678;13.314;2023-11-18T01:00:22;10.27;;;3.00;;
68803;SDS011;55787;52.678;13.314;2023-11-18T01:02:49;11.93;;;3.40;;
68803;SDS011;55787;52.678;13.314;2023-11-18T01:05:16;12.35;;;3.53;;
68803;SDS011;55787;52.678;13.314;2023-11-18T01:07:43;10.30;;;3.00;;
68803;SDS011;55787;52.678;13.314;2023-11-18T01:10:10;11.57;;;3.15;;
68803;SDS011;55787;52.678;13.314;2023-11-18T01:12:37;10.45;;;3.05;;
68803;SDS011;55787;52.678;13.314;2023-11-18T01:15:04;11.75;;;3.78;;
68803;SDS011;55787;52.678;13.314;2023-11-18T01:17:31;9.63;;;3.10;;
68803;SDS011;55787;52.678;13.314;2023-11-18T01:19:58;11.97;;;3.00;;
68803;SDS011;55787;52.678;13.314;2023-11-18T01:22:25;10.88;;;3.30;;
68803;SDS011;55787;52.678;13.314;2023-11-18T01:24:52;10.13;;;2.92;;
68803;SDS011;55787;52.678;13.314;2023-11-18T01:27:18;11.38;;;3.30;;
68803;SDS011;55787;52.678;13.314;2023-11-18T01:29:46;9.90;;;2.97;;
68803;SDS011;55787;52.678;13.314;2023-11-18T01:32:13;12.57;;;3.27;;
68803;SDS011;55787;52.678;13.314;2023-11-18T01:34:40;10.02;;;3.05;;
68803;SDS011;55787;52.678;13.314;2023-11-18T01:37:09;10.00;;;3.30;;
68803;SDS011;55787;52.678;13.314;2023-11-18T01:39:36;10.27;;;3.22;;
68803;SDS011;55787;52.678;13.314;2023-11-18T01:42:03;10.32;;;3.08;;
68803;SDS011;55787;52.678;13.314;2023-11-18T01:44:30;10.50;;;3.10;;
68803;SDS011;55787;52.678;13.314;2023-11-18T01:46:57;11.68;;;3.30;;
68803;SDS011;55787;52.678;13.314;2023-11-18T01:49:25;10.00;;;2.90;;
68803;SDS011;55787;52.678;13.314;2023-11-18T01:51:55;10.32;;;3.10;;
68803;SDS011;55787;52.678;13.314;2023-11-18T01:54:23;10.13;;;3.28;;
68803;SDS011;55787;52.678;13.314;2023-11-18T01:56:50;10.43;;;3.10;;
68803;SDS011;55787;52.678;13.314;2023-11-18T01:59:18;10.90;;;3.00;;
68803;SDS011;55787;52.678;13.314;2023-11-18T02:01:51;10.00;;;2.80;;
68803;SDS011;55787;52.678;13.314;2023-11-18T02:04:20;13.00;;;3.35;;
68803;SDS011;55787;52.678;13.314;2023-11-18T02:06:48;9.90;;;2.72;;
68803;SDS011;55787;52.678;13.314;2023-11-18T02:09:16;9.77;;;2.90;;
68803;SDS011;55787;52.678;13.314;2023-11-18T02:12:06;9.95;;;2.70;;
68803;SDS011;55787;52.678;13.314;2023-11-18T02:14:47;9.48;;;2.83;;
68803;SDS011;55787;52.678;13.314;2023-11-18T02:17:17;9.60;;;2.92;;
68803;SDS011;55787;52.678;13.314;2023-11-18T02:19:46;9.75;;;2.70;;
68803;SDS011;55787;52.678;13.314;2023-11-18T02:22:13;11.03;;;3.00;;
68803;SDS011;55787;52.678;13.314;2023-11-18T02:24:40;11.45;;;3.25;;
68803;SDS011;55787;52.678;13.314;2023-11-18T02:27:08;9.73;;;3.15;;
68803;SDS011;55787;52.678;13.314;2023-11-18T02:29:39;9.98;;;2.85;;
68803;SDS011;55787;52.678;13.314;2023-11-18T02:32:25;10.40;;;3.30;;
68803;SDS011;55787;52.678;13.314;2023-11-18T02:35:20;13.20;;;3.47;;
68803;SDS011;55787;52.678;13.314;2023-11-18T02:37:52;15.15;;;3.78;;
68803;SDS011;55787;52.678;13.314;2023-11-18T02:40:34;11.07;;;3.70;;
68803;SDS011;55787;52.678;13.314;2023-11-18T02:43:03;10.73;;;3.05;;
68803;SDS011;55787;52.678;13.314;2023-11-18T02:45:35;11.10;;;3.10;;
68803;SDS011;55787;52.678;13.314;2023-11-18T02:48:04;11.00;;;2.93;;
68803;SDS011;55787;52.678;13.314;2023-11-18T02:50:33;12.00;;;3.20;;
68803;SDS011;55787;52.678;13.314;2023-11-18T02:53:02;11.90;;;2.97;;
68803;SDS011;55787;52.678;13.314;2023-11-18T02:55:29;11.00;;;3.00;;
68803;SDS011;55787;52.678;13.314;2023-11-18T02:57:55;9.77;;;2.88;;
68803;SDS011;55787;52.678;13.314;2023-11-18T03:00:23;12.47;;;3.43;;
68803;SDS011;55787;52.678;13.314;2023-11-18T03:02:50;10.57;;;3.20;;
68803;SDS011;55787;52.678;13.314;2023-11-18T03:05:18;10.50;;;3.00;;
68803;SDS011;55787;52.678;13.314;2023-11-18T03:07:45;10.13;;;3.08;;
68803;SDS011;55787;52.678;13.314;2023-11-18T03:10:16;10.38;;;3.20;;
68803;SDS011;55787;52.678;13.314;2023-11-18T03:15:19;10.85;;;3.03;;
68803;SDS011;55787;52.678;13.314;2023-11-18T03:17:48;9.65;;;2.83;;
68803;SDS011;55787;52.678;13.314;2023-11-18T03:20:17;10.77;;;2.85;;
68803;SDS011;55787;52.678;13.314;2023-11-18T03:22:45;9.77;;;2.88;;
68803;SDS011;55787;52.678;13.314;2023-11-18T03:25:12;10.30;;;3.03;;
68803;SDS011;55787;52.678;13.314;2023-11-18T03:27:40;11.63;;;3.17;;
68803;SDS011;55787;52.678;13.314;2023-11-18T03:30:07;10.45;;;2.90;;
68803;SDS011;55787;52.678;13.314;2023-11-18T03:32:35;11.45;;;3.03;;
68803;SDS011;55787;52.678;13.314;2023-11-18T03:35:06;9.20;;;2.60;;
68803;SDS011;55787;52.678;13.314;2023-11-18T03:37:35;10.10;;;2.70;;
68803;SDS011;55787;52.678;13.314;2023-11-18T03:40:08;11.23;;;2.97;;
68803;SDS011;55787;52.678;13.314;2023-11-18T03:42:35;10.10;;;2.67;;
68803;SDS011;55787;52.678;13.314;2023-11-18T03:45:03;10.57;;;2.78;;
68803;SDS011;55787;52.678;13.314;2023-11-18T03:47:30;10.07;;;2.70;;
68803;SDS011;55787;52.678;13.314;2023-11-18T03:49:57;11.23;;;3.00;;
68803;SDS011;55787;52.678;13.314;2023-11-18T03:52:24;11.27;;;2.83;;
68803;SDS011;55787;52.678;13.314;2023-11-18T03:54:52;9.43;;;2.70;;
68803;SDS011;55787;52.678;13.314;2023-11-18T03:57:18;9.32;;;2.60;;
68803;SDS011;55787;52.678;13.314;2023-11-18T03:59:45;9.50;;;2.80;;
68803;SDS011;55787;52.678;13.314;2023-11-18T04:02:11;9.13;;;2.57;;
68803;SDS011;55787;52.678;13.314;2023-11-18T04:04:38;9.00;;;2.50;;
68803;SDS011;55787;52.678;13.314;2023-11-18T04:07:05;11.20;;;3.22;;
68803;SDS011;55787;52.678;13.314;2023-11-18T04:09:33;11.02;;;2.97;;
68803;SDS011;55787;52.678;13.314;2023-11-18T04:11:59;10.15;;;2.90;;
68803;SDS011;55787;52.678;13.314;2023-11-18T04:14:26;10.87;;;3.00;;
68803;SDS011;55787;52.678;13.314;2023-11-18T04:16:53;9.35;;;2.63;;
68803;SDS011;55787;52.678;13.314;2023-11-18T04:19:21;10.65;;;3.28;;
68803;SDS011;55787;52.678;13.314;2023-11-18T04:21:47;11.13;;;3.03;;
68803;SDS011;55787;52.678;13.314;2023-11-18T04:24:15;10.13;;;2.75;;
68803;SDS011;55787;52.678;13.314;2023-11-18T04:26:42;10.00;;;2.90;;
68803;SDS011;55787;52.678;13.314;2023-11-18T04:29:08;11.85;;;3.58;;
68803;SDS011;55787;52.678;13.314;2023-11-18T04:31:35;11.77;;;3.35;;
68803;SDS011;55787;52.678;13.314;2023-11-18T04:34:03;12.57;;;3.40;;
68803;SDS011;55787;52.678;13.314;2023-11-18T04:36:30;12.45;;;3.60;;
68803;SDS011;55787;52.678;13.314;2023-11-18T04:38:57;12.67;;;3.70;;
68803;SDS011;55787;52.678;13.314;2023-11-18T04:41:24;14.63;;;4.38;;
68803;SDS011;55787;52.678;13.314;2023-11-18T04:43:50;13.63;;;4.22;;
68803;SDS011;55787;52.678;13.314;2023-11-18T04:46:17;13.68;;;4.05;;
68803;SDS011;55787;52.678;13.314;2023-11-18T04:48:45;13.77;;;3.90;;
68803;SDS011;55787;52.678;13.314;2023-11-18T04:51:12;14.00;;;4.47;;
68803;SDS011;55787;52.678;13.314;2023-11-18T04:53:38;15.60;;;5.15;;
68803;SDS011;55787;52.678;13.314;2023-11-18T04:56:05;14.05;;;4.60;;
68803;SDS011;55787;52.678;13.314;2023-11-18T04:58:39;12.35;;;4.13;;
68803;SDS011;55787;52.678;13.314;2023-11-18T05:01:06;12.18;;;4.00;;
68803;SDS011;55787;52.678;13.314;2023-11-18T05:03:35;11.70;;;3.90;;
68803;SDS011;55787;52.678;13.314;2023-11-18T05:06:02;12.63;;;3.95;;
68803;SDS011;55787;52.678;13.314;2023-11-18T05:08:30;12.65;;;3.78;;
68803;SDS011;55787;52.678;13.314;2023-11-18T05:10:57;12.18;;;3.80;;
68803;SDS011;55787;52.678;13.314;2023-11-18T05:13:24;13.27;;;3.88;;
68803;SDS011;55787;52.678;13.314;2023-11-18T05:15:52;16.13;;;4.00;;
68803;SDS011;55787;52.678;13.314;2023-11-18T05:18:20;12.38;;;4.07;;
68803;SDS011;55787;52.678;13.314;2023-11-18T05:20:47;17.52;;;3.90;;
68803;SDS011;55787;52.678;13.314;2023-11-18T05:23:14;12.52;;;3.95;;
68803;SDS011;55787;52.678;13.314;2023-11-18T05:25:41;12.63;;;3.88;;
68803;SDS011;55787;52.678;13.314;2023-11-18T05:28:10;12.77;;;3.70;;
68803;SDS011;55787;52.678;13.314;2023-11-18T05:30:37;12.48;;;3.28;;
68803;SDS011;55787;52.678;13.314;2023-11-18T05:33:05;11.85;;;3.75;;
68803;SDS011;55787;52.678;13.314;2023-11-18T05:35:32;13.50;;;3.65;;
68803;SDS011;55787;52.678;13.314;2023-11-18T05:37:59;11.30;;;3.25;;
68803;SDS011;55787;52.678;13.314;2023-11-18T05:40:26;11.43;;;3.43;;
68803;SDS011;55787;52.678;13.314;2023-11-18T05:42:55;12.55;;;3.42;;
68803;SDS011;55787;52.678;13.314;2023-11-18T05:45:24;12.45;;;3.25;;
68803;SDS011;55787;52.678;13.314;2023-11-18T05:48:03;14.95;;;3.95;;
68803;SDS011;55787;52.678;13.314;2023-11-18T05:50:30;11.77;;;3.58;;
68803;SDS011;55787;52.678;13.314;2023-11-18T05:52:57;12.33;;;3.50;;
68803;SDS011;55787;52.678;13.314;2023-11-18T05:55:24;11.88;;;3.40;;
68803;SDS011;55787;52.678;13.314;2023-11-18T05:57:50;11.43;;;3.20;;
68803;SDS011;55787;52.678;13.314;2023-11-18T06:00:17;18.15;;;4.47;;
68803;SDS011;55787;52.678;13.314;2023-11-18T06:02:55;15.88;;;4.63;;
68803;SDS011;55787;52.678;13.314;2023-11-18T06:05:22;13.63;;;4.27;;
68803;SDS011;55787;52.678;13.314;2023-11-18T06:07:52;14.82;;;4.28;;
68803;SDS011;55787;52.678;13.314;2023-11-18T06:10:19;17.05;;;4.93;;
68803;SDS011;55787;52.678;13.314;2023-11-18T06:12:46;13.35;;;3.90;;
68803;SDS011;55787;52.678;13.314;2023-11-18T06:15:13;14.68;;;4.10;;
68803;SDS011;55787;52.678;13.314;2023-11-18T06:17:43;14.83;;;4.63;;
68803;SDS011;55787;52.678;13.314;2023-11-18T06:20:10;14.43;;;4.03;;
68803;SDS011;55787;52.678;13.314;2023-11-18T06:22:37;13.82;;;4.20;;
68803;SDS011;55787;52.678;13.314;2023-11-18T06:25:03;13.75;;;3.88;;
68803;SDS011;55787;52.678;13.314;2023-11-18T06:27:33;15.65;;;4.70;;
68803;SDS011;55787;52.678;13.314;2023-11-18T06:30:00;15.80;;;4.63;;
68803;SDS011;55787;52.678;13.314;2023-11-18T06:32:26;15.88;;;4.35;;
68803;SDS011;55787;52.678;13.314;2023-11-18T06:34:53;16.95;;;4.95;;
68803;SDS011;55787;52.678;13.314;2023-11-18T06:37:21;17.23;;;5.38;;
68803;SDS011;55787;52.678;13.314;2023-11-18T06:39:48;17.92;;;5.40;;
68803;SDS011;55787;52.678;13.314;2023-11-18T06:42:15;17.83;;;5.00;;
68803;SDS011;55787;52.678;13.314;2023-11-18T06:44:41;16.65;;;4.30;;
68803;SDS011;55787;52.678;13.314;2023-11-18T06:47:08;19.73;;;5.28;;
68803;SDS011;55787;52.678;13.314;2023-11-18T06:49:35;20.08;;;5.63;;
68803;SDS011;55787;52.678;13.314;2023-11-18T06:52:03;19.65;;;5.63;;
68803;SDS011;55787;52.678;13.314;2023-11-18T06:54:30;17.90;;;5.80;;
68803;SDS011;55787;52.678;13.314;2023-11-18T06:56:59;17.23;;;5.55;;
68803;SDS011;55787;52.678;13.314;2023-11-18T06:59:26;17.52;;;5.50;;
68803;SDS011;55787;52.678;13.314;2023-11-18T07:01:52;16.63;;;4.80;;
68803;SDS011;55787;52.678;13.314;2023-11-18T07:04:19;16.33;;;5.15;;
68803;SDS011;55787;52.678;13.314;2023-11-18T07:06:46;16.17;;;4.77;;
68803;SDS011;55787;52.678;13.314;2023-11-18T07:09:13;16.42;;;5.05;;
68803;SDS011;55787;52.678;13.314;2023-11-18T07:11:43;16.67;;;4.80;;
68803;SDS011;55787;52.678;13.314;2023-11-18T07:14:10;16.20;;;4.65;;
68803;SDS011;55787;52.678;13.314;2023-11-18T07:16:39;17.30;;;5.00;;
68803;SDS011;55787;52.678;13.314;2023-11-18T07:19:07;16.80;;;5.13;;
68803;SDS011;55787;52.678;13.314;2023-11-18T07:21:34;16.17;;;4.65;;
68803;SDS011;55787;52.678;13.314;2023-11-18T07:24:01;16.38;;;4.53;;
68803;SDS011;55787;52.678;13.314;2023-11-18T07:26:28;15.07;;;4.63;;
68803;SDS011;55787;52.678;13.314;2023-11-18T07:28:56;15.68;;;4.70;;
68803;SDS011;55787;52.678;13.314;2023-11-18T07:31:22;15.17;;;4.17;;
68803;SDS011;55787;52.678;13.314;2023-11-18T07:33:51;16.42;;;5.00;;
68803;SDS011;55787;52.678;13.314;2023-11-18T07:36:18;17.27;;;5.18;;
68803;SDS011;55787;52.678;13.314;2023-11-18T07:38:46;16.45;;;4.78;;
68803;SDS011;55787;52.678;13.314;2023-11-18T07:41:13;17.63;;;4.43;;
68803;SDS011;55787;52.678;13.314;2023-11-18T07:43:53;15.03;;;4.77;;
68803;SDS011;55787;52.678;13.314;2023-11-18T07:46:22;17.42;;;5.55;;
68803;SDS011;55787;52.678;13.314;2023-11-18T07:48:49;18.70;;;6.10;;
68803;SDS011;55787;52.678;13.314;2023-11-18T07:51:18;16.25;;;6.00;;
68803;SDS011;55787;52.678;13.314;2023-11-18T07:53:47;16.33;;;5.10;;
68803;SDS011;55787;52.678;13.314;2023-11-18T07:56:15;15.83;;;5.83;;
68803;SDS011;55787;52.678;13.314;2023-11-18T07:58:43;15.45;;;4.97;;
68803;SDS011;55787;52.678;13.314;2023-11-18T08:01:12;14.75;;;4.10;;
68803;SDS011;55787;52.678;13.314;2023-11-18T08:03:39;14.93;;;4.35;;
68803;SDS011;55787;52.678;13.314;2023-11-18T08:06:08;14.57;;;4.20;;
68803;SDS011;55787;52.678;13.314;2023-11-18T08:08:34;17.30;;;6.77;;
68803;SDS011;55787;52.678;13.314;2023-11-18T08:11:04;12.57;;;3.60;;
68803;SDS011;55787;52.678;13.314;2023-11-18T08:13:36;15.02;;;4.65;;
68803;SDS011;55787;52.678;13.314;2023-11-18T08:16:03;13.07;;;3.92;;
68803;SDS011;55787;52.678;13.314;2023-11-18T08:18:30;14.65;;;3.80;;
68803;SDS011;55787;52.678;13.314;2023-11-18T08:20:58;14.20;;;4.00;;
68803;SDS011;55787;52.678;13.314;2023-11-18T08:23:26;13.52;;;4.00;;
68803;SDS011;55787;52.678;13.314;2023-11-18T08:25:54;12.52;;;3.53;;
68803;SDS011;55787;52.678;13.314;2023-11-18T08:28:21;13.27;;;3.70;;
68803;SDS011;55787;52.678;13.314;2023-11-18T08:30:48;12.18;;;3.20;;
68803;SDS011;55787;52.678;13.314;2023-11-18T08:33:17;12.10;;;3.00;;
68803;SDS011;55787;52.678;13.314;2023-11-18T08:35:45;14.65;;;3.80;;
68803;SDS011;55787;52.678;13.314;2023-11-18T08:38:12;12.32;;;3.95;;
68803;SDS011;55787;52.678;13.314;2023-11-18T08:40:39;12.45;;;3.75;;
68803;SDS011;55787;52.678;13.314;2023-11-18T08:43:06;10.95;;;3.22;;
68803;SDS011;55787;52.678;13.314;2023-11-18T08:45:34;11.63;;;3.23;;
68803;SDS011;55787;52.678;13.314;2023-11-18T08:48:03;12.70;;;3.03;;
68803;SDS011;55787;52.678;13.314;2023-11-18T08:50:34;10.48;;;3.10;;
68803;SDS011;55787;52.678;13.314;2023-11-18T08:53:02;9.75;;;2.92;;
68803;SDS011;55787;52.678;13.314;2023-11-18T08:55:32;8.57;;;2.40;;
68803;SDS011;55787;52.678;13.314;2023-11-18T08:58:17;8.87;;;2.50;;
68803;SDS011;55787;52.678;13.314;2023-11-18T09:00:58;9.88;;;2.90;;
68803;SDS011;55787;52.678;13.314;2023-11-18T09:03:32;9.60;;;2.55;;
68803;SDS011;55787;52.678;13.314;2023-11-18T09:06:03;9.88;;;3.33;;
68803;SDS011;55787;52.678;13.314;2023-11-18T09:08:32;10.75;;;2.60;;
68803;SDS011;55787;52.678;13.314;2023-11-18T09:11:05;9.77;;;2.87;;
68803;SDS011;55787;52.678;13.314;2023-11-18T09:13:33;7.85;;;2.50;;
68803;SDS011;55787;52.678;13.314;2023-11-18T09:16:02;8.77;;;2.20;;
68803;SDS011;55787;52.678;13.314;2023-11-18T09:18:30;9.05;;;2.45;;
68803;SDS011;55787;52.678;13.314;2023-11-18T09:20:59;8.90;;;2.30;;
68803;SDS011;55787;52.678;13.314;2023-11-18T09:23:28;9.13;;;2.60;;
68803;SDS011;55787;52.678;13.314;2023-11-18T09:25:56;8.60;;;2.70;;
68803;SDS011;55787;52.678;13.314;2023-11-18T09:28:23;10.25;;;3.00;;
68803;SDS011;55787;52.678;13.314;2023-11-18T09:30:55;9.88;;;3.15;;
68803;SDS011;55787;52.678;13.314;2023-11-18T09:33:24;10.73;;;2.97;;
68803;SDS011;55787;52.678;13.314;2023-11-18T09:35:52;12.10;;;3.20;;
68803;SDS011;55787;52.678;13.314;2023-11-18T09:38:28;10.63;;;3.30;;
68803;SDS011;55787;52.678;13.314;2023-11-18T09:40:54;9.38;;;3.03;;
68803;SDS011;55787;52.678;13.314;2023-11-18T09:43:23;11.18;;;3.30;;
68803;SDS011;55787;52.678;13.314;2023-11-18T09:45:53;9.98;;;3.00;;
68803;SDS011;55787;52.678;13.314;2023-11-18T09:48:21;9.47;;;3.00;;
68803;SDS011;55787;52.678;13.314;2023-11-18T09:50:52;10.70;;;3.00;;
68803;SDS011;55787;52.678;13.314;2023-11-18T09:53:19;9.23;;;2.70;;
68803;SDS011;55787;52.678;13.314;2023-11-18T09:55:50;11.25;;;3.08;;
68803;SDS011;55787;52.678;13.314;2023-11-18T09:58:42;9.52;;;2.80;;
68803;SDS011;55787;52.678;13.314;2023-11-18T10:01:15;9.37;;;2.83;;
68803;SDS011;55787;52.678;13.314;2023-11-18T10:03:45;8.75;;;2.70;;
68803;SDS011;55787;52.678;13.314;2023-11-18T10:06:13;9.40;;;2.55;;
68803;SDS011;55787;52.678;13.314;2023-11-18T10:08:43;9.35;;;2.78;;
68803;SDS011;55787;52.678;13.314;2023-11-18T10:11:12;9.88;;;2.70;;
68803;SDS011;55787;52.678;13.314;2023-11-18T10:13:40;8.50;;;2.83;;
68803;SDS011;55787;52.678;13.314;2023-11-18T10:16:08;7.53;;;2.17;;
68803;SDS011;55787;52.678;13.314;2023-11-18T10:18:34;9.77;;;2.78;;
68803;SDS011;55787;52.678;13.314;2023-11-18T10:21:03;10.40;;;3.00;;
68803;SDS011;55787;52.678;13.314;2023-11-18T10:23:37;10.95;;;3.05;;
68803;SDS011;55787;52.678;13.314;2023-11-18T10:26:05;10.23;;;2.70;;
68803;SDS011;55787;52.678;13.314;2023-11-18T10:28:34;9.20;;;2.80;;
68803;SDS011;55787;52.678;13.314;2023-11-18T10:31:05;10.13;;;2.70;;
68803;SDS011;55787;52.678;13.314;2023-11-18T10:33:36;8.57;;;2.38;;
68803;SDS011;55787;52.678;13.314;2023-11-18T10:36:04;7.97;;;2.47;;
68803;SDS011;55787;52.678;13.314;2023-11-18T10:38:39;8.47;;;2.63;;
68803;SDS011;55787;52.678;13.314;2023-11-18T10:41:16;9.65;;;2.85;;
68803;SDS011;55787;52.678;13.314;2023-11-18T10:43:45;8.50;;;2.60;;
68803;SDS011;55787;52.678;13.314;2023-11-18T10:46:17;9.45;;;2.90;;
68803;SDS011;55787;52.678;13.314;2023-11-18T10:48:45;12.27;;;2.70;;
68803;SDS011;55787;52.678;13.314;2023-11-18T10:51:16;9.77;;;3.00;;
68803;SDS011;55787;52.678;13.314;2023-11-18T10:53:49;9.13;;;2.53;;
68803;SDS011;55787;52.678;13.314;2023-11-18T10:56:30;11.15;;;2.58;;
68803;SDS011;55787;52.678;13.314;2023-11-18T10:58:59;9.95;;;3.10;;
68803;SDS011;55787;52.678;13.314;2023-11-18T11:01:35;9.85;;;2.60;;
68803;SDS011;55787;52.678;13.314;2023-11-18T11:04:09;10.97;;;3.17;;
68803;SDS011;55787;52.678;13.314;2023-11-18T11:06:58;11.48;;;3.00;;
68803;SDS011;55787;52.678;13.314;2023-11-18T11:09:24;10.48;;;2.88;;
68803;SDS011;55787;52.678;13.314;2023-11-18T11:11:57;9.35;;;2.40;;
68803;SDS011;55787;52.678;13.314;2023-11-18T11:14:35;8.13;;;2.17;;
68803;SDS011;55787;52.678;13.314;2023-11-18T11:17:08;9.47;;;2.40;;
68803;SDS011;55787;52.678;13.314;2023-11-18T11:22:38;10.10;;;2.58;;
68803;SDS011;55787;52.678;13.314;2023-11-18T11:25:32;8.63;;;2.22;;
68803;SDS011;55787;52.678;13.314;2023-11-18T11:28:10;11.35;;;2.88;;
68803;SDS011;55787;52.678;13.314;2023-11-18T11:33:20;9.98;;;2.55;;
68803;SDS011;55787;52.678;13.314;2023-11-18T11:36:07;10.35;;;2.97;;
68803;SDS011;55787;52.678;13.314;2023-11-18T11:38:38;10.52;;;2.97;;
68803;SDS011;55787;52.678;13.314;2023-11-18T11:41:04;10.95;;;3.47;;
68803;SDS011;55787;52.678;13.314;2023-11-18T11:43:34;11.17;;;3.20;;
68803;SDS011;55787;52.678;13.314;2023-11-18T11:46:01;11.20;;;3.67;;
68803;SDS011;55787;52.678;13.314;2023-11-18T11:48:37;9.40;;;2.83;;
68803;SDS011;55787;52.678;13.314;2023-11-18T11:54:21;10.05;;;3.00;;
68803;SDS011;55787;52.678;13.314;2023-11-18T11:56:56;10.63;;;2.87;;
68803;SDS011;55787;52.678;13.314;2023-11-18T11:59:36;9.40;;;3.10;;
68803;SDS011;55787;52.678;13.314;2023-11-18T12:02:22;10.27;;;3.33;;
68803;SDS011;55787;52.678;13.314;2023-11-18T12:04:55;9.80;;;3.20;;
68803;SDS011;55787;52.678;13.314;2023-11-18T12:07:25;11.77;;;2.78;;
68803;SDS011;55787;52.678;13.314;2023-11-18T12:09:57;11.67;;;3.33;;
68803;SDS011;55787;52.678;13.314;2023-11-18T12:12:25;11.15;;;3.08;;
68803;SDS011;55787;52.678;13.314;2023-11-18T12:14:54;12.73;;;3.95;;
68803;SDS011;55787;52.678;13.314;2023-11-18T12:17:23;11.20;;;3.03;;
68803;SDS011;55787;52.678;13.314;2023-11-18T12:19:55;10.88;;;3.20;;
68803;SDS011;55787;52.678;13.314;2023-11-18T12:23:02;10.27;;;3.50;;
68803;SDS011;55787;52.678;13.314;2023-11-18T12:25:31;13.20;;;4.75;;
68803;SDS011;55787;52.678;13.314;2023-11-18T12:28:00;11.43;;;3.20;;
68803;SDS011;55787;52.678;13.314;2023-11-18T12:33:03;9.20;;;2.35;;
68803;SDS011;55787;52.678;13.314;2023-11-18T12:44:23;10.85;;;2.75;;
68803;SDS011;55787;52.678;13.314;2023-11-18T12:47:01;9.40;;;2.30;;
68803;SDS011;55787;52.678;13.314;2023-11-18T12:49:41;8.73;;;2.00;;
68803;SDS011;55787;52.678;13.314;2023-11-18T12:52:09;9.27;;;2.40;;
68803;SDS011;55787;52.678;13.314;2023-11-18T12:54:45;7.72;;;2.28;;
68803;SDS011;55787;52.678;13.314;2023-11-18T12:57:19;8.55;;;2.10;;
68803;SDS011;55787;52.678;13.314;2023-11-18T12:59:49;9.48;;;2.33;;
68803;SDS011;55787;52.678;13.314;2023-11-18T13:02:16;8.27;;;1.97;;
68803;SDS011;55787;52.678;13.314;2023-11-18T13:04:46;8.55;;;2.10;;
68803;SDS011;55787;52.678;13.314;2023-11-18T13:07:16;9.20;;;2.20;;
68803;SDS011;55787;52.678;13.314;2023-11-18T13:09:44;10.60;;;3.60;;
68803;SDS011;55787;52.678;13.314;2023-11-18T13:12:12;26.85;;;11.73;;
68803;SDS011;55787;52.678;13.314;2023-11-18T13:14:46;10.70;;;3.40;;
68803;SDS011;55787;52.678;13.314;2023-11-18T13:17:14;11.27;;;2.28;;
68803;SDS011;55787;52.678;13.314;2023-11-18T13:19:43;8.85;;;2.33;;
68803;SDS011;55787;52.678;13.314;2023-11-18T13:22:11;8.50;;;2.40;;
68803;SDS011;55787;52.678;13.314;2023-11-18T13:24:39;9.75;;;2.88;;
68803;SDS011;55787;52.678;13.314;2023-11-18T13:27:07;8.67;;;2.33;;
68803;SDS011;55787;52.678;13.314;2023-11-18T13:29:35;8.68;;;2.00;;
68803;SDS011;55787;52.678;13.314;2023-11-18T13:32:05;10.57;;;2.35;;
68803;SDS011;55787;52.678;13.314;2023-11-18T13:34:33;8.85;;;2.55;;
68803;SDS011;55787;52.678;13.314;2023-11-18T13:37:04;8.70;;;2.35;;
68803;SDS011;55787;52.678;13.314;2023-11-18T13:39:33;9.73;;;2.40;;
68803;SDS011;55787;52.678;13.314;2023-11-18T13:42:22;8.82;;;2.55;;
68803;SDS011;55787;52.678;13.314;2023-11-18T13:44:50;8.93;;;2.60;;
68803;SDS011;55787;52.678;13.314;2023-11-18T13:47:19;9.07;;;2.45;;
68803;SDS011;55787;52.678;13.314;2023-11-18T13:49:49;7.68;;;1.83;;
68803;SDS011;55787;52.678;13.314;2023-11-18T13:52:17;8.60;;;2.27;;
68803;SDS011;55787;52.678;13.314;2023-11-18T13:54:46;8.35;;;2.10;;
68803;SDS011;55787;52.678;13.314;2023-11-18T13:57:13;13.95;;;6.18;;
68803;SDS011;55787;52.678;13.314;2023-11-18T13:59:40;8.98;;;2.72;;
68803;SDS011;55787;52.678;13.314;2023-11-18T14:02:10;10.55;;;2.55;;
68803;SDS011;55787;52.678;13.314;2023-11-18T14:04:39;8.37;;;2.37;;
68803;SDS011;55787;52.678;13.314;2023-11-18T14:07:06;8.50;;;2.30;;
68803;SDS011;55787;52.678;13.314;2023-11-18T14:09:35;11.85;;;3.97;;
68803;SDS011;55787;52.678;13.314;2023-11-18T14:12:06;9.70;;;3.00;;
68803;SDS011;55787;52.678;13.314;2023-11-18T14:14:34;10.35;;;3.30;;
68803;SDS011;55787;52.678;13.314;2023-11-18T14:17:01;11.73;;;3.57;;
68803;SDS011;55787;52.678;13.314;2023-11-18T14:19:28;11.80;;;4.43;;
68803;SDS011;55787;52.678;13.314;2023-11-18T14:21:57;11.80;;;4.22;;
68803;SDS011;55787;52.678;13.314;2023-11-18T14:24:24;11.15;;;3.75;;
68803;SDS011;55787;52.678;13.314;2023-11-18T14:26:54;10.85;;;3.40;;
68803;SDS011;55787;52.678;13.314;2023-11-18T14:29:23;10.83;;;3.43;;
68803;SDS011;55787;52.678;13.314;2023-11-18T14:31:54;9.73;;;3.35;;
68803;SDS011;55787;52.678;13.314;2023-11-18T14:34:21;11.63;;;4.10;;
68803;SDS011;55787;52.678;13.314;2023-11-18T14:36:47;15.30;;;6.43;;
68803;SDS011;55787;52.678;13.314;2023-11-18T14:39:15;19.30;;;7.13;;
68803;SDS011;55787;52.678;13.314;2023-11-18T14:41:47;23.10;;;9.50;;
68803;SDS011;55787;52.678;13.314;2023-11-18T14:44:14;14.43;;;6.22;;
68803;SDS011;55787;52.678;13.314;2023-11-18T14:46:41;15.38;;;5.72;;
68803;SDS011;55787;52.678;13.314;2023-11-18T14:49:07;15.45;;;4.90;;
68803;SDS011;55787;52.678;13.314;2023-11-18T14:51:36;11.82;;;3.90;;
68803;SDS011;55787;52.678;13.314;2023-11-18T14:54:03;13.93;;;4.10;;
68803;SDS011;55787;52.678;13.314;2023-11-18T14:56:32;10.35;;;3.30;;
68803;SDS011;55787;52.678;13.314;2023-11-18T14:58:58;11.48;;;3.53;;
68803;SDS011;55787;52.678;13.314;2023-11-18T15:01:26;12.45;;;3.83;;